createdAt,value
2023-03-18T00:01:27.132Z,100034.09
2023-03-18T00:03:55.448Z,100039.47
2023-03-18T00:06:26.393Z,100037.78
2023-03-18T00:08:54.490Z,100039.97
2023-03-18T00:11:22.861Z,99984.13
2023-03-18T00:13:51.352Z,99942.81
2023-03-18T00:16:23.762Z,100050.75
2023-03-18T00:18:52.415Z,100055.63
2023-03-18T00:21:20.498Z,100005.22
2023-03-18T00:23:50.728Z,99873.19
2023-03-18T00:26:20.215Z,99964.59
2023-03-18T00:28:48.283Z,100037.00
2023-03-18T00:31:16.330Z,99996.44
2023-03-18T00:33:48.145Z,100032.00
2023-03-18T00:36:18.673Z,100021.63
2023-03-18T00:38:51.460Z,99997.34
2023-03-18T00:41:19.741Z,99959.06
2023-03-18T00:43:53.090Z,100021.16
2023-03-18T00:46:28.672Z,100025.56
2023-03-18T00:49:00.635Z,99975.78
2023-03-18T00:51:32.457Z,100027.94
2023-03-18T00:54:04.879Z,100029.16
2023-03-18T00:56:34.057Z,99969.66
2023-03-18T00:59:03.055Z,99980.06
2023-03-18T01:01:31.812Z,100009.84
2023-03-18T01:04:02.086Z,100025.59
2023-03-18T01:06:34.448Z,99960.03
2023-03-18T01:09:05.309Z,100014.41
2023-03-18T01:11:34.214Z,99993.78
2023-03-18T01:14:03.800Z,100004.66
2023-03-18T01:16:31.893Z,99989.09
2023-03-18T01:19:00.847Z,99997.72
2023-03-18T01:21:29.003Z,99997.25
2023-03-18T01:24:04.483Z,99980.44
2023-03-18T01:26:35.100Z,99989.00
2023-03-18T01:29:04.077Z,99979.91
2023-03-18T01:31:34.825Z,99934.84
2023-03-18T01:34:08.196Z,99984.13
2023-03-18T01:36:50.213Z,99977.34
2023-03-18T01:39:20.934Z,99936.84
2023-03-18T01:41:51.835Z,99909.22
2023-03-18T01:44:29.256Z,99982.53
2023-03-18T01:46:59.832Z,99933.94
2023-03-18T01:49:50.467Z,99780.47
2023-03-18T01:52:27.364Z,99959.22
2023-03-18T01:55:22.086Z,99925.47
2023-03-18T01:57:51.847Z,99954.31
2023-03-18T02:00:21.916Z,99969.25
2023-03-18T02:02:54.163Z,99986.91
2023-03-18T02:05:27.766Z,99910.13
2023-03-18T02:07:55.871Z,99984.28
2023-03-18T02:10:28.462Z,99915.56
2023-03-18T02:13:09.177Z,99948.63
2023-03-18T02:16:05.682Z,99934.69
2023-03-18T02:18:47.580Z,99930.28
2023-03-18T02:22:08.896Z,99994.63
2023-03-18T02:25:14.520Z,99878.66
2023-03-18T02:27:56.001Z,99910.41
2023-03-18T02:30:36.206Z,99999.53
2023-03-18T02:33:07.721Z,99986.94
2023-03-18T02:35:37.230Z,99965.44
2023-03-18T02:38:05.900Z,99983.31
2023-03-18T02:40:39.226Z,99986.38
2023-03-18T02:43:28.217Z,99922.16
2023-03-18T02:46:30.140Z,99988.13
2023-03-18T02:49:01.660Z,99980.84
2023-03-18T02:51:31.415Z,99987.50
2023-03-18T02:54:08.447Z,99951.72
2023-03-18T02:56:42.008Z,99916.22
2023-03-18T02:59:13.364Z,99985.03
2023-03-18T03:01:44.086Z,99980.13
2023-03-18T03:04:13.240Z,99977.25
2023-03-18T03:06:41.596Z,99983.59
2023-03-18T03:09:15.710Z,99945.91
2023-03-18T03:11:47.132Z,99986.84
2023-03-18T03:14:22.011Z,99969.75
2023-03-18T03:16:53.754Z,99980.78
2023-03-18T03:19:21.894Z,99953.50
2023-03-18T03:21:49.791Z,99968.41
2023-03-18T03:24:18.157Z,99990.53
2023-03-18T03:26:48.224Z,99980.88
2023-03-18T03:29:18.207Z,99983.03
2023-03-18T03:31:46.444Z,99990.66
2023-03-18T03:34:14.416Z,99946.59
2023-03-18T03:36:44.706Z,99980.38
2023-03-18T03:39:12.673Z,99994.81
2023-03-18T03:41:41.147Z,99988.28
2023-03-18T03:44:11.302Z,99961.56
2023-03-18T03:46:39.290Z,99949.09
2023-03-18T03:49:08.334Z,99939.75
2023-03-18T03:51:36.775Z,100000.66
2023-03-18T03:54:04.896Z,99949.56
2023-03-18T03:56:33.569Z,99924.81
2023-03-18T03:59:01.621Z,99985.16
2023-03-18T04:01:48.611Z,99979.63
2023-03-18T04:04:17.056Z,99980.13
2023-03-18T04:06:45.127Z,99964.03
2023-03-18T04:09:13.253Z,99949.50
2023-03-18T04:11:41.309Z,99890.94
2023-03-18T04:14:09.236Z,99969.94
2023-03-18T04:16:38.575Z,99936.66
2023-03-18T04:19:07.339Z,99964.53
2023-03-18T04:21:35.174Z,99972.88
2023-03-18T04:24:05.166Z,99971.81
2023-03-18T04:26:34.116Z,99913.19
2023-03-18T04:29:05.413Z,99904.41
2023-03-18T04:31:33.874Z,99977.53
2023-03-18T04:34:01.928Z,99916.44
2023-03-18T04:36:30.353Z,99959.63
2023-03-18T04:38:58.394Z,99968.56
2023-03-18T04:41:26.445Z,99897.63
2023-03-18T04:43:58.163Z,99947.09
2023-03-18T04:46:35.128Z,99922.75
2023-03-18T04:49:03.729Z,99949.25
2023-03-18T04:51:32.479Z,99914.19
2023-03-18T04:54:02.589Z,99959.34
2023-03-18T04:56:32.598Z,99948.31
2023-03-18T04:59:01.312Z,99967.38
2023-03-18T05:01:34.038Z,99964.47
2023-03-18T05:04:02.989Z,99964.47
2023-03-18T05:06:41.436Z,99950.47
2023-03-18T05:09:13.494Z,99943.66
2023-03-18T05:11:43.257Z,99946.75
2023-03-18T05:14:19.705Z,99949.88
2023-03-18T05:16:49.885Z,99954.00
2023-03-18T05:19:18.721Z,99945.00
2023-03-18T05:21:58.738Z,99952.59
2023-03-18T05:24:28.808Z,99898.09
2023-03-18T05:26:57.472Z,99949.97
2023-03-18T05:29:32.493Z,99941.16
2023-03-18T05:32:13.499Z,99923.66
2023-03-18T05:34:43.127Z,99923.94
2023-03-18T05:37:14.480Z,99921.53
2023-03-18T05:39:48.252Z,99910.56
2023-03-18T05:42:19.834Z,99878.00
2023-03-18T05:44:48.460Z,99931.13
2023-03-18T05:47:19.779Z,99920.47
2023-03-18T05:50:03.227Z,99928.19
2023-03-18T05:52:34.343Z,99910.47
2023-03-18T05:55:06.256Z,99912.91
2023-03-18T05:57:41.050Z,99925.09
2023-03-18T06:00:16.371Z,99890.34
2023-03-18T06:02:47.285Z,99846.41
2023-03-18T06:05:18.361Z,99915.81
2023-03-18T06:07:49.629Z,99916.31
2023-03-18T06:10:18.795Z,99865.53
2023-03-18T06:12:49.742Z,99739.78
2023-03-18T06:15:19.417Z,99923.88
2023-03-18T06:17:49.256Z,99922.16
2023-03-18T06:20:19.740Z,99921.28
2023-03-18T06:22:49.980Z,99917.28
2023-03-18T06:25:22.048Z,99918.13
2023-03-18T06:27:51.229Z,99885.31
2023-03-18T06:30:25.757Z,99923.41
2023-03-18T06:32:54.179Z,99924.72
2023-03-18T06:35:28.454Z,99852.19
2023-03-18T06:37:58.360Z,99896.53
2023-03-18T06:40:31.843Z,99903.84
2023-03-18T06:43:01.262Z,99854.00
2023-03-18T06:45:39.206Z,99859.34
2023-03-18T06:48:10.560Z,99910.44
2023-03-18T06:50:43.130Z,99867.72
2023-03-18T06:53:21.786Z,99900.19
2023-03-18T06:55:51.970Z,99879.31
2023-03-18T06:58:24.940Z,99879.97
2023-03-18T07:01:01.870Z,99865.66
2023-03-18T07:03:36.065Z,99868.09
2023-03-18T07:06:05.880Z,99840.25
2023-03-18T07:08:34.609Z,99841.84
2023-03-18T07:11:04.801Z,99896.00
2023-03-18T07:13:34.850Z,99897.94
2023-03-18T07:16:06.636Z,99898.66
2023-03-18T07:18:35.738Z,99883.78
2023-03-18T07:21:04.986Z,99902.06
2023-03-18T07:23:34.568Z,99888.41
2023-03-18T07:26:02.745Z,99900.69
2023-03-18T07:28:30.793Z,99865.41
2023-03-18T07:31:01.484Z,99896.19
2023-03-18T07:33:29.844Z,99862.44
2023-03-18T07:35:58.466Z,99903.03
2023-03-18T07:38:31.130Z,99854.72
2023-03-18T07:41:01.820Z,99841.13
2023-03-18T07:43:30.661Z,99884.06
2023-03-18T07:45:59.081Z,99891.91
2023-03-18T07:48:27.623Z,99883.91
2023-03-18T07:50:55.625Z,99885.44
2023-03-18T07:53:24.814Z,99879.16
2023-03-18T07:55:53.282Z,99884.75
2023-03-18T07:58:23.569Z,99885.69
2023-03-18T08:00:53.263Z,99872.56
2023-03-18T08:03:21.872Z,99869.91
2023-03-18T08:05:50.024Z,99793.75
2023-03-18T08:08:18.570Z,99871.13
2023-03-18T08:10:47.117Z,99797.38
2023-03-18T08:13:15.258Z,99868.78
2023-03-18T08:15:43.507Z,99835.53
2023-03-18T08:18:12.101Z,99861.22
2023-03-18T08:20:40.239Z,99875.94
2023-03-18T08:23:08.529Z,99864.38
2023-03-18T08:25:37.123Z,99864.22
2023-03-18T08:28:07.791Z,99869.06
2023-03-18T08:30:38.826Z,99867.22
2023-03-18T08:33:08.908Z,99771.91
2023-03-18T08:35:39.540Z,99868.25
2023-03-18T08:38:10.808Z,99818.22
2023-03-18T08:40:41.529Z,99859.84
2023-03-18T08:43:10.149Z,99849.75
2023-03-18T08:45:39.393Z,99867.81
2023-03-18T08:48:08.185Z,99832.78
2023-03-18T08:50:37.368Z,99802.03
2023-03-18T08:53:06.023Z,99839.75
2023-03-18T08:55:41.155Z,99779.63
2023-03-18T08:58:09.938Z,99829.50
2023-03-18T09:00:42.351Z,99841.41
2023-03-18T09:03:11.208Z,99825.09
2023-03-18T09:05:40.385Z,99833.34
2023-03-18T09:08:09.087Z,99811.03
2023-03-18T09:10:37.694Z,99821.19
2023-03-18T09:13:06.125Z,99808.97
2023-03-18T09:15:35.189Z,99828.56
2023-03-18T09:18:11.703Z,99827.78
2023-03-18T09:20:42.077Z,99814.97
2023-03-18T09:23:12.533Z,99810.66
2023-03-18T09:25:46.274Z,99767.63
2023-03-18T09:28:15.191Z,99745.03
2023-03-18T09:30:43.650Z,99796.56
2023-03-18T09:33:12.200Z,99765.75
2023-03-18T09:35:41.293Z,99783.25
2023-03-18T09:38:20.356Z,99781.31
2023-03-18T09:41:30.309Z,99760.91
2023-03-18T09:44:14.136Z,99799.00
2023-03-18T09:47:42.942Z,99781.41
2023-03-18T09:51:00.935Z,99790.94
2023-03-18T09:54:02.475Z,99783.63
2023-03-18T09:56:35.618Z,99783.78
2023-03-18T09:59:47.684Z,99772.59
2023-03-18T10:02:56.065Z,99767.13
2023-03-18T10:05:50.192Z,99768.84
2023-03-18T10:08:51.453Z,99760.13
2023-03-18T10:11:44.656Z,99721.28
2023-03-18T10:14:27.052Z,99722.59
2023-03-18T10:17:13.833Z,99687.88
2023-03-18T10:19:59.778Z,99737.94
2023-03-18T10:22:52.872Z,99745.50
2023-03-18T10:25:35.777Z,99747.06
2023-03-18T10:28:44.792Z,99674.44
2023-03-18T10:31:32.552Z,99734.09
2023-03-18T10:34:10.604Z,99739.03
2023-03-18T10:37:21.666Z,99717.06
2023-03-18T10:39:53.303Z,99719.81
2023-03-18T10:42:30.809Z,99728.78
2023-03-18T10:45:30.583Z,99721.22
2023-03-18T10:48:32.133Z,99724.09
2023-03-18T10:51:27.511Z,99662.06
2023-03-18T10:54:23.553Z,99716.03
2023-03-18T10:56:53.362Z,99704.72
2023-03-18T10:59:25.109Z,99709.28
2023-03-18T11:02:05.871Z,99689.09
2023-03-18T11:04:46.838Z,99701.53
2023-03-18T11:07:26.206Z,99700.03
2023-03-18T11:09:55.810Z,99686.44
2023-03-18T11:12:29.454Z,99654.94
2023-03-18T11:14:58.254Z,99661.06
2023-03-18T11:17:33.858Z,99687.75
2023-03-18T11:20:25.481Z,99680.03
2023-03-18T11:22:57.806Z,99673.06
2023-03-18T11:25:27.331Z,99662.91
2023-03-18T11:28:26.758Z,99662.53
2023-03-18T11:31:05.227Z,99624.81
2023-03-18T11:33:33.533Z,99657.91
2023-03-18T11:36:09.663Z,99629.94
2023-03-18T11:38:38.226Z,99656.13
2023-03-18T11:41:18.519Z,99672.47
2023-03-18T11:44:08.613Z,99640.94
2023-03-18T11:46:46.279Z,99660.66
2023-03-18T11:49:20.367Z,99642.91
2023-03-18T11:52:07.142Z,99631.69
2023-03-18T11:55:32.063Z,99642.44
2023-03-18T11:58:50.274Z,99641.88
2023-03-18T12:01:45.737Z,99637.81
2023-03-18T12:04:41.492Z,99625.75
2023-03-18T12:07:48.294Z,99631.50
2023-03-18T12:10:25.224Z,99642.53
2023-03-18T12:13:35.753Z,99624.94
2023-03-18T12:16:41.365Z,99622.78
2023-03-18T12:19:46.223Z,99630.81
2023-03-18T12:22:56.770Z,99616.91
2023-03-18T12:25:38.573Z,99624.63
2023-03-18T12:28:54.530Z,99620.09
2023-03-18T12:31:44.152Z,99621.13
2023-03-18T12:34:52.079Z,99617.75
2023-03-18T12:38:06.205Z,99625.09
2023-03-18T12:41:15.702Z,99606.72
2023-03-18T12:44:24.633Z,99602.53
2023-03-18T12:47:11.870Z,99605.38
2023-03-18T12:50:06.355Z,99599.00
2023-03-18T12:52:53.309Z,99608.25
2023-03-18T12:55:30.231Z,99608.84
2023-03-18T12:58:29.229Z,99609.22
2023-03-18T13:01:07.718Z,99610.38
2023-03-18T13:04:04.258Z,99614.69
2023-03-18T13:07:04.164Z,99605.19
2023-03-18T13:09:43.900Z,99609.34
2023-03-18T13:12:34.399Z,99607.91
2023-03-18T13:15:25.766Z,99553.81
2023-03-18T13:18:02.676Z,99589.47
2023-03-18T13:20:36.938Z,99618.22
2023-03-18T13:23:29.544Z,99619.38
2023-03-18T13:26:10.010Z,99618.91
2023-03-18T13:28:55.198Z,99626.72
2023-03-18T13:31:58.103Z,99579.53
2023-03-18T13:34:46.132Z,99625.38
2023-03-18T13:37:43.387Z,99646.72
2023-03-18T13:40:53.336Z,99643.19
2023-03-18T13:43:24.886Z,99605.03
2023-03-18T13:45:56.295Z,99637.50
2023-03-18T13:48:35.886Z,99641.84
2023-03-18T13:51:26.011Z,99575.88
2023-03-18T13:54:02.188Z,99604.91
2023-03-18T13:56:47.932Z,99630.44
2023-03-18T13:59:34.447Z,99640.84
2023-03-18T14:02:31.911Z,99629.97
2023-03-18T14:05:00.554Z,99607.06
2023-03-18T14:07:29.851Z,99630.41
2023-03-18T14:10:17.229Z,99638.00
2023-03-18T14:12:48.240Z,99639.69
2023-03-18T14:15:17.144Z,99643.47
2023-03-18T14:17:59.024Z,99635.09
2023-03-18T14:20:43.522Z,99635.66
2023-03-18T14:23:34.399Z,99645.38
2023-03-18T14:26:25.042Z,99622.28
2023-03-18T14:29:09.495Z,99639.69
2023-03-18T14:31:41.944Z,99634.66
2023-03-18T14:34:19.312Z,99620.28
2023-03-18T14:36:53.595Z,99634.75
2023-03-18T14:39:43.155Z,99593.97
2023-03-18T14:42:46.321Z,99590.09
2023-03-18T14:45:36.241Z,99640.06
2023-03-18T14:48:27.669Z,99640.44
2023-03-18T14:51:00.401Z,99582.59
2023-03-18T14:53:41.086Z,99630.31
2023-03-18T14:56:30.522Z,99628.94
2023-03-18T14:58:59.058Z,99628.13
2023-03-18T15:01:43.262Z,99582.06
2023-03-18T15:04:22.752Z,99615.56
2023-03-18T15:06:56.939Z,99613.47
2023-03-18T15:09:30.258Z,99626.69
2023-03-18T15:11:58.498Z,99618.66
2023-03-18T15:14:34.973Z,99641.25
2023-03-18T15:17:12.691Z,99613.88
2023-03-18T15:19:42.081Z,99636.63
2023-03-18T15:22:21.022Z,99644.13
2023-03-18T15:24:50.458Z,99611.59
2023-03-18T15:27:22.724Z,99617.22
2023-03-18T15:30:00.588Z,99490.00
2023-03-18T15:32:33.014Z,99643.22
2023-03-18T15:35:20.217Z,99637.78
2023-03-18T15:38:28.434Z,99640.31
2023-03-18T15:41:09.858Z,99647.47
2023-03-18T15:43:45.349Z,99646.72
2023-03-18T15:46:27.577Z,99606.97
2023-03-18T15:48:58.121Z,99650.81
2023-03-18T15:51:41.241Z,99654.03
2023-03-18T15:54:44.347Z,99659.78
2023-03-18T15:57:42.510Z,99606.53
2023-03-18T16:00:11.794Z,99603.41
2023-03-18T16:02:43.558Z,99624.56
2023-03-18T16:05:26.029Z,99649.31
2023-03-18T16:07:55.230Z,99672.69
2023-03-18T16:10:26.483Z,99626.91
2023-03-18T16:13:02.445Z,99666.69
2023-03-18T16:15:32.662Z,99650.94
2023-03-18T16:18:01.446Z,99671.06
2023-03-18T16:20:31.771Z,99676.00
2023-03-18T16:23:00.963Z,99658.47
2023-03-18T16:25:29.844Z,99684.09
2023-03-18T16:28:01.404Z,99688.69
2023-03-18T16:30:34.203Z,99670.69
2023-03-18T16:33:02.584Z,99692.50
2023-03-18T16:35:34.601Z,99694.09
2023-03-18T16:38:03.096Z,99680.78
2023-03-18T16:40:32.965Z,99665.34
2023-03-18T16:43:02.382Z,99687.75
2023-03-18T16:45:33.610Z,99686.44
2023-03-18T16:48:07.129Z,99684.16
2023-03-18T16:50:38.986Z,99706.06
2023-03-18T16:53:26.569Z,99707.91
2023-03-18T16:56:17.397Z,99702.78
2023-03-18T16:58:46.176Z,99651.41
2023-03-18T17:01:19.675Z,99637.56
2023-03-18T17:03:48.980Z,99707.03
2023-03-18T17:06:19.192Z,99688.81
2023-03-18T17:08:47.633Z,99709.53
2023-03-18T17:11:18.742Z,99718.63
2023-03-18T17:13:47.646Z,99698.56
2023-03-18T17:16:20.453Z,99701.22
2023-03-18T17:18:49.968Z,99694.25
2023-03-18T17:21:18.858Z,99663.97
2023-03-18T17:23:48.223Z,99662.66
2023-03-18T17:26:17.320Z,99676.50
2023-03-18T17:28:49.537Z,99667.13
2023-03-18T17:31:20.781Z,99678.66
2023-03-18T17:33:49.696Z,99678.78
2023-03-18T17:36:18.634Z,99708.63
2023-03-18T17:38:47.092Z,99715.22
2023-03-18T17:41:21.841Z,99731.81
2023-03-18T17:43:51.354Z,99727.72
2023-03-18T17:46:20.086Z,99730.38
2023-03-18T17:48:49.413Z,99724.94
2023-03-18T17:51:23.976Z,99725.88
2023-03-18T17:53:59.475Z,99726.22
2023-03-18T17:56:29.006Z,99726.72
2023-03-18T17:58:57.631Z,99710.31
2023-03-18T18:01:29.308Z,99731.22
2023-03-18T18:03:59.984Z,99729.63
2023-03-18T18:06:29.656Z,99698.25
2023-03-18T18:09:00.726Z,99728.22
2023-03-18T18:11:39.856Z,99724.78
2023-03-18T18:14:25.105Z,99729.69
2023-03-18T18:16:56.233Z,99721.59
2023-03-18T18:19:24.763Z,99717.25
2023-03-18T18:21:54.660Z,99722.03
2023-03-18T18:24:29.455Z,99655.63
2023-03-18T18:26:58.743Z,99653.00
2023-03-18T18:29:33.867Z,99705.91
2023-03-18T18:32:03.196Z,99706.97
2023-03-18T18:34:31.979Z,99686.34
2023-03-18T18:37:00.389Z,99695.28
2023-03-18T18:39:28.728Z,99690.50
2023-03-18T18:41:56.874Z,99655.75
2023-03-18T18:44:24.953Z,99687.91
2023-03-18T18:46:55.108Z,99644.78
2023-03-18T18:49:26.733Z,99691.81
2023-03-18T18:51:56.475Z,99652.13
2023-03-18T18:54:25.613Z,99705.06
2023-03-18T18:56:53.914Z,99695.00
2023-03-18T18:59:36.806Z,99692.41
2023-03-18T19:02:35.418Z,99687.47
2023-03-18T19:05:05.040Z,99671.97
2023-03-18T19:07:33.968Z,99695.16
2023-03-18T19:10:02.401Z,99624.88
2023-03-18T19:12:30.583Z,99661.22
2023-03-18T19:15:04.944Z,99687.69
2023-03-18T19:17:34.015Z,99650.72
2023-03-18T19:20:06.860Z,99681.28
2023-03-18T19:22:47.737Z,99669.56
2023-03-18T19:25:20.500Z,99629.63
2023-03-18T19:27:49.081Z,99688.81
2023-03-18T19:30:23.540Z,99683.97
2023-03-18T19:32:52.529Z,99687.03
2023-03-18T19:35:20.564Z,99660.28
2023-03-18T19:37:49.207Z,99684.22
2023-03-18T19:40:43.548Z,99677.81
2023-03-18T19:43:19.218Z,99630.81
2023-03-18T19:45:50.591Z,99637.38
2023-03-18T19:48:24.113Z,99635.41
2023-03-18T19:50:53.165Z,99678.50
2023-03-18T19:53:21.770Z,99679.75
2023-03-18T19:55:49.841Z,99680.63
2023-03-18T19:58:28.138Z,99631.38
2023-03-18T20:00:56.700Z,99641.72
2023-03-18T20:03:27.784Z,99629.41
2023-03-18T20:05:55.943Z,99683.41
2023-03-18T20:08:25.428Z,99667.34
2023-03-18T20:10:54.650Z,99652.41
2023-03-18T20:13:24.890Z,99680.13
2023-03-18T20:15:53.166Z,99598.41
2023-03-18T20:18:21.616Z,99683.34
2023-03-18T20:20:51.853Z,99683.34
2023-03-18T20:23:27.507Z,99670.78
2023-03-18T20:25:56.786Z,99602.88
2023-03-18T20:28:26.859Z,99666.59
2023-03-18T20:30:56.936Z,99671.72
2023-03-18T20:33:25.458Z,99697.09
2023-03-18T20:35:54.583Z,99626.25
2023-03-18T20:38:39.363Z,99640.38
2023-03-18T20:41:08.048Z,99679.75
2023-03-18T20:43:36.853Z,99673.41
2023-03-18T20:46:05.925Z,99684.34
2023-03-18T20:48:36.574Z,99654.00
2023-03-18T20:51:13.476Z,99676.28
2023-03-18T20:53:41.694Z,99683.69
2023-03-18T20:56:10.339Z,99647.97
2023-03-18T20:58:38.998Z,99684.25
2023-03-18T21:01:12.386Z,99684.81
2023-03-18T21:03:41.984Z,99603.81
2023-03-18T21:06:16.844Z,99687.97
2023-03-18T21:08:45.109Z,99670.91
2023-03-18T21:11:29.832Z,99687.06
2023-03-18T21:13:59.823Z,99648.03
2023-03-18T21:16:28.513Z,99634.09
2023-03-18T21:18:56.985Z,99682.06
2023-03-18T21:21:46.312Z,99692.38
2023-03-18T21:24:27.701Z,99622.84
2023-03-18T21:27:04.854Z,99626.41
2023-03-18T21:29:34.954Z,99675.88
2023-03-18T21:32:03.556Z,99676.19
2023-03-18T21:34:32.405Z,99656.91
2023-03-18T21:37:00.898Z,99674.28
2023-03-18T21:39:30.394Z,99681.00
2023-03-18T21:41:59.368Z,99670.97
2023-03-18T21:44:27.677Z,99683.00
2023-03-18T21:46:56.379Z,99673.72
2023-03-18T21:49:24.733Z,99680.66
2023-03-18T21:51:55.475Z,99681.06
2023-03-18T21:54:26.278Z,99678.25
2023-03-18T21:56:54.393Z,99648.09
2023-03-18T21:59:23.150Z,99671.78
2023-03-18T22:01:51.754Z,99676.41
2023-03-18T22:04:20.300Z,99658.53
2023-03-18T22:06:48.996Z,99587.50
2023-03-18T22:09:17.423Z,99627.00
2023-03-18T22:11:45.650Z,99674.75
2023-03-18T22:14:14.991Z,99632.72
2023-03-18T22:16:43.711Z,99678.47
2023-03-18T22:19:12.562Z,99683.53
2023-03-18T22:21:40.845Z,99621.66
2023-03-18T22:24:14.744Z,99669.28
2023-03-18T22:26:43.124Z,99665.63
2023-03-18T22:29:11.401Z,99672.25
2023-03-18T22:31:41.488Z,99660.97
2023-03-18T22:34:31.195Z,99671.41
2023-03-18T22:36:59.861Z,99674.03
2023-03-18T22:39:28.494Z,99658.78
2023-03-18T22:41:57.424Z,99658.66
2023-03-18T22:44:26.096Z,99653.50
2023-03-18T22:46:54.404Z,99654.53
2023-03-18T22:49:23.124Z,99661.72
2023-03-18T22:51:51.744Z,99669.19
2023-03-18T22:54:20.140Z,99612.59
2023-03-18T22:56:48.429Z,99669.50
2023-03-18T22:59:17.003Z,99669.72
2023-03-18T23:01:45.329Z,99655.81
2023-03-18T23:04:13.710Z,99674.34
2023-03-18T23:06:43.370Z,99669.38
2023-03-18T23:09:11.480Z,99666.22
2023-03-18T23:11:39.884Z,99658.72
2023-03-18T23:14:12.071Z,99654.59
2023-03-18T23:16:40.492Z,99644.78
2023-03-18T23:19:08.545Z,99665.53
2023-03-18T23:21:36.868Z,99645.09
2023-03-18T23:24:06.216Z,99603.66
2023-03-18T23:26:34.563Z,99655.75
2023-03-18T23:29:03.194Z,99649.56
2023-03-18T23:31:32.453Z,99642.78
2023-03-18T23:34:00.480Z,99603.47
2023-03-18T23:36:28.882Z,99653.88
2023-03-18T23:38:57.042Z,99650.72
2023-03-18T23:41:25.215Z,99654.00
2023-03-18T23:43:54.153Z,99648.59
2023-03-18T23:46:22.472Z,99595.44
2023-03-18T23:48:50.567Z,99654.06
2023-03-18T23:51:18.806Z,99629.06
2023-03-18T23:53:46.798Z,99651.00
2023-03-18T23:56:15.080Z,99600.50
2023-03-18T23:58:43.939Z,99645.22
